BERRYESSA (BER)

Elevation: 456' · PUTAH CR basin · Operator: US Bureau of Reclamation

Provisional data, subject to change.
Query executed Saturday at 10:19:04   clock

Select a sensor type for a plot of data.
Note: Reservoir Flows are daily averages.

Earlier

Date RES ELE    STORAGE    OUTFLOW    INFLOW    PPT INC   
 FEET   AF   CFS   CFS   INCHES  
11/21/2014 400.63 885637 128 -546 0.21
11/22/2014 400.67 886231 140 439 0.09
11/23/2014 400.65 885934 140 28 0.01
11/24/2014 400.65 885934 140 154 0.00
11/25/2014 400.60 885191 150 -211 0.00
11/26/2014 400.59 885043 146 90 0.00
11/27/2014 400.56 884598 140 -51 0.00
11/28/2014 400.55 884449 140 84 0.00
11/29/2014 400.53 884153 162 22 0.28
11/30/2014 400.58 884895 178 552 0.43
12/01/2014 400.53 884153 175 -199 0.07
12/02/2014 400.67 886231 152 1200 0.49
12/03/2014 400.92 889947 140 2013 1.55
12/04/2014 401.05 891882 160 1146 0.44
12/05/2014 401.08 892329 147 372 0.30
12/06/2014 401.25 894863 128 1406 0.74
12/07/2014 401.27 895162 125 315 0.02
12/08/2014 401.30 895609 125 355 0.00
12/09/2014 401.32 895908 125 276 0.00
12/10/2014 401.34 896206 119 284 0.00
12/11/2014 404.10 937843 69 21061 0.93
12/12/2014 404.86 949456 60 5915 2.84
12/13/2014 405.00 951602 80 1162 0.21
12/14/2014 405.10 953137 80 859 0.00
12/15/2014 -- -- -- -- --
12/16/2014 -- -- -- -- --
12/17/2014 -- -- -- -- --
12/18/2014 -- -- -- -- --
12/19/2014 -- -- -- -- --
12/20/2014 -- -- -- -- --

Later | Latest

Warning! This data is preliminary and subject to revision.

Show BER Map | Plot BER Data | 1 Month BER Data | Real-Time BER Data | BER Info